Time;durP1;ratioP1;P1;durP2;ratioP2;P2;SDS_P1;SDS_P2;PMS_P1;PMS_P2;Temp;Humidity;BMP_temperature;BMP_pressure;BME280_temperature;BME280_humidity;BME280_pressure;Samples;Min_cycle;Max_cycle;Signal;HPM_P1;HPM_P2
2021/12/04 00:01:07;;;;;;;31.83;18.95;;;;;;;4.10;100.00;99929.88;2610232;36;20039;-69
2021/12/04 00:03:39;;;;;;;29.88;17.85;;;;;;;3.99;100.00;99931.53;2610088;36;20036;-70
2021/12/04 00:06:13;;;;;;;30.58;19.10;;;;;;;4.02;100.00;99922.47;2609279;36;20056;-69
2021/12/04 00:08:44;;;;;;;29.65;17.92;;;;;;;4.07;100.00;99922.97;2603634;36;20046;-68
2021/12/04 00:13:58;;;;;;;29.85;18.98;;;;;;;4.05;100.00;99919.56;2606081;36;21765;-68
2021/12/04 00:16:26;;;;;;;31.13;17.92;;;;;;;4.09;100.00;99913.03;2605029;36;20642;-70
2021/12/04 00:19:04;;;;;;;30.73;18.05;;;;;;;4.09;100.00;99912.19;2606266;36;20143;-68
2021/12/04 00:27:26;;;;;;;24.48;14.20;;;;;;;4.18;100.00;99904.34;2605043;36;20030;-69
2021/12/04 00:29:56;;;;;;;25.75;15.25;;;;;;;4.19;100.00;99905.19;2606179;36;20166;-69
2021/12/04 00:32:29;;;;;;;25.73;15.57;;;;;;;4.17;100.00;99907.13;2607335;36;20587;-68
2021/12/04 00:49:12;;;;;;;26.45;14.90;;;;;;;4.15;100.00;99885.06;2607198;36;20058;-69
2021/12/04 00:51:45;;;;;;;23.83;14.18;;;;;;;4.16;100.00;99886.78;2608245;36;20034;-69
2021/12/04 00:54:20;;;;;;;23.73;13.80;;;;;;;4.15;100.00;99883.28;2605970;36;20034;-68
2021/12/04 00:57:09;;;;;;;24.73;14.60;;;;;;;4.15;100.00;99893.94;2606476;31;20039;-71
2021/12/04 00:59:40;;;;;;;25.67;15.70;;;;;;;4.12;100.00;99891.50;2607054;36;20037;-73
2021/12/04 01:02:11;;;;;;;25.27;15.98;;;;;;;4.11;100.00;99896.94;2606136;36;20048;-69
2021/12/04 01:04:39;;;;;;;25.63;15.30;;;;;;;4.12;100.00;99893.31;2606900;36;20630;-70
2021/12/04 01:07:08;;;;;;;25.52;15.27;;;;;;;4.17;100.00;99897.31;2605639;36;20130;-71
2021/12/04 01:09:51;;;;;;;27.25;16.42;;;;;;;4.14;100.00;99894.91;2606868;36;20054;-70
2021/12/04 01:12:21;;;;;;;25.48;14.60;;;;;;;4.10;100.00;99888.09;2606472;36;20038;-71
2021/12/04 01:14:49;;;;;;;25.50;14.40;;;;;;;4.20;100.00;99886.41;2608841;36;20076;-71
2021/12/04 01:17:18;;;;;;;27.67;16.85;;;;;;;4.14;100.00;99884.25;2608772;31;20166;-70
2021/12/04 01:19:46;;;;;;;26.67;15.60;;;;;;;4.14;100.00;99881.56;2609106;36;20096;-70
2021/12/04 01:22:19;;;;;;;25.52;14.77;;;;;;;4.15;100.00;99871.75;2609360;36;21282;-69
2021/12/04 01:24:47;;;;;;;28.02;17.10;;;;;;;4.16;100.00;99871.66;2608063;36;20640;-71
2021/12/04 01:27:18;;;;;;;26.27;16.48;;;;;;;4.11;100.00;99871.16;2605949;36;20154;-70
2021/12/04 01:30:09;;;;;;;27.67;16.60;;;;;;;4.15;100.00;99875.28;2609962;36;20034;-69
2021/12/04 01:32:38;;;;;;;25.02;14.65;;;;;;;4.12;100.00;99878.19;2610462;31;20114;-69
2021/12/04 01:35:07;;;;;;;24.95;14.23;;;;;;;4.16;100.00;99868.97;2610891;36;20042;-69
2021/12/04 01:37:35;;;;;;;24.23;14.15;;;;;;;4.15;100.00;99859.31;2611176;36;20163;-70
2021/12/04 01:40:04;;;;;;;26.52;15.40;;;;;;;4.16;100.00;99861.00;2611537;31;20532;-69
2021/12/04 01:42:36;;;;;;;25.98;14.45;;;;;;;4.16;100.00;99861.00;2610094;36;20507;-70
2021/12/04 01:45:06;;;;;;;24.88;14.18;;;;;;;4.16;100.00;99861.00;2611660;36;20035;-71
2021/12/04 01:47:34;;;;;;;24.13;13.88;;;;;;;4.19;100.00;99862.56;2610729;36;20194;-71
2021/12/04 01:50:03;;;;;;;26.83;14.53;;;;;;;4.17;100.00;99853.88;2610466;36;20125;-70
2021/12/04 01:53:02;;;;;;;26.75;15.00;;;;;;;4.15;100.00;99846.00;2610540;31;20038;-68
2021/12/04 01:55:34;;;;;;;24.55;13.77;;;;;;;4.17;100.00;99841.38;2611216;36;20080;-70
2021/12/04 01:58:09;;;;;;;24.85;14.68;;;;;;;4.15;100.00;99835.34;2611396;31;20044;-69
2021/12/04 02:00:42;;;;;;;24.65;13.57;;;;;;;4.23;100.00;99834.75;2611501;31;20795;-69
2021/12/04 02:03:13;;;;;;;21.02;12.93;;;;;;;4.20;100.00;99834.97;2610738;36;21118;-70
2021/12/04 02:05:42;;;;;;;21.48;13.07;;;;;;;4.18;100.00;99840.44;2610696;31;20990;-69
2021/12/04 02:08:13;;;;;;;27.08;14.73;;;;;;;4.13;100.00;99826.59;2610589;36;20057;-69
2021/12/04 02:10:43;;;;;;;24.38;13.65;;;;;;;4.17;100.00;99840.56;2610747;36;20038;-71
2021/12/04 02:13:15;;;;;;;24.83;14.23;;;;;;;4.20;100.00;99835.81;2611733;31;20133;-72
2021/12/04 02:18:25;;;;;;;21.70;13.38;;;;;;;4.23;100.00;99834.75;2609731;36;20085;-70
2021/12/04 02:20:55;;;;;;;25.23;14.10;;;;;;;4.26;100.00;99837.16;2610603;36;20168;-72
2021/12/04 02:23:24;;;;;;;25.73;13.73;;;;;;;4.23;100.00;99836.56;2611188;36;20166;-70
2021/12/04 02:25:54;;;;;;;23.30;13.45;;;;;;;4.29;100.00;99841.41;2608446;36;20134;-71
2021/12/04 02:28:44;;;;;;;22.83;13.40;;;;;;;4.20;100.00;99838.47;2607103;36;20030;-69
2021/12/04 02:31:30;;;;;;;25.08;15.23;;;;;;;4.25;100.00;99834.63;2607546;36;20140;-70
2021/12/04 02:33:59;;;;;;;22.98;13.38;;;;;;;4.28;100.00;99826.38;2607094;36;20030;-71
2021/12/04 02:36:30;;;;;;;23.27;12.65;;;;;;;4.36;100.00;99831.97;2607770;36;20539;-70
2021/12/04 02:38:58;;;;;;;26.98;13.85;;;;;;;4.32;100.00;99828.69;2607181;36;20133;-69
2021/12/04 02:41:26;;;;;;;26.02;14.88;;;;;;;4.38;100.00;99817.53;2607429;36;20065;-70
2021/12/04 02:43:55;;;;;;;24.13;14.20;;;;;;;4.31;100.00;99821.66;2606939;36;20616;-70
2021/12/04 02:46:23;;;;;;;25.58;13.32;;;;;;;4.30;100.00;99821.75;2607871;36;20523;-71
2021/12/04 02:49:21;;;;;;;26.02;15.15;;;;;;;4.33;100.00;99827.72;2608809;36;20061;-70
2021/12/04 02:51:52;;;;;;;24.88;13.63;;;;;;;4.34;100.00;99818.75;2607009;36;20034;-70
2021/12/04 02:54:32;;;;;;;25.65;13.98;;;;;;;4.37;100.00;99818.53;2610124;36;20126;-69
2021/12/04 02:57:01;;;;;;;25.55;14.32;;;;;;;4.36;100.00;99810.66;2610632;36;20066;-70
2021/12/04 02:59:45;;;;;;;24.02;13.85;;;;;;;4.37;100.00;99801.66;2610898;36;20163;-69
2021/12/04 03:05:06;;;;;;;27.65;14.77;;;;;;;4.27;100.00;99798.03;2610143;36;20035;-70
2021/12/04 03:15:11;;;;;;;24.25;12.90;;;;;;;4.29;100.00;99788.97;2609965;54;20038;-70
2021/12/04 03:17:39;;;;;;;27.70;14.10;;;;;;;4.31;100.00;99786.19;2606283;36;20034;-69
2021/12/04 03:20:25;;;;;;;29.92;14.52;;;;;;;4.37;100.00;99791.00;2605826;36;20079;-69
2021/12/04 03:22:58;;;;;;;29.67;15.48;;;;;;;4.30;100.00;99789.81;2607197;36;20041;-70
2021/12/04 03:25:27;;;;;;;31.65;13.57;;;;;;;4.33;100.00;99794.91;2606065;31;22497;-72
2021/12/04 03:27:55;;;;;;;28.33;13.95;;;;;;;4.40;100.00;99790.75;2607054;36;20034;-71
2021/12/04 03:41:09;;;;;;;31.58;15.93;;;;;;;4.35;100.00;99766.31;2607107;36;20037;-70
2021/12/04 03:43:37;;;;;;;36.17;17.40;;;;;;;4.32;100.00;99771.91;2607128;31;20638;-70
2021/12/04 03:46:13;;;;;;;32.35;15.57;;;;;;;4.45;100.00;99764.63;2607386;36;20401;-70
2021/12/04 03:49:08;;;;;;;33.35;15.23;;;;;;;4.47;100.00;99768.00;2607357;36;20034;-71
2021/12/04 03:51:54;;;;;;;40.00;16.25;;;;;;;4.48;100.00;99760.84;2604886;36;20130;-72
2021/12/04 03:54:22;;;;;;;35.22;16.38;;;;;;;4.48;100.00;99768.84;2606786;36;20073;-70
2021/12/04 03:57:01;;;;;;;41.72;16.67;;;;;;;4.41;100.00;99770.31;2607064;36;20140;-69
2021/12/04 03:59:29;;;;;;;41.63;17.23;;;;;;;4.55;100.00;99768.22;2607221;36;20069;-70
2021/12/04 04:02:00;;;;;;;46.83;18.63;;;;;;;4.51;100.00;99761.44;2606294;36;20149;-70
2021/12/04 04:04:28;;;;;;;49.58;18.80;;;;;;;4.36;100.00;99757.38;2607061;36;20054;-70
2021/12/04 04:06:58;;;;;;;43.63;17.73;;;;;;;4.39;100.00;99746.47;2605253;36;20467;-70
2021/12/04 04:09:27;;;;;;;46.28;17.55;;;;;;;4.37;100.00;99737.72;2605261;31;20248;-70
2021/12/04 04:11:55;;;;;;;45.67;18.73;;;;;;;4.38;100.00;99739.44;2604731;36;20725;-70
2021/12/04 04:14:24;;;;;;;59.35;19.98;;;;;;;4.38;100.00;99734.09;2607281;31;20046;-70
2021/12/04 04:17:00;;;;;;;70.60;22.08;;;;;;;4.36;100.00;99736.06;2609951;36;20173;-70
2021/12/04 04:19:31;;;;;;;52.40;18.25;;;;;;;4.37;100.00;99730.59;2610605;36;20154;-71
2021/12/04 04:21:59;;;;;;;56.67;22.02;;;;;;;4.33;100.00;99728.31;2609780;36;20038;-70
2021/12/04 04:24:31;;;;;;;58.00;20.40;;;;;;;4.30;100.00;99732.06;2610440;36;20464;-69
2021/12/04 04:27:00;;;;;;;47.25;17.95;;;;;;;4.37;100.00;99727.06;2609855;36;20038;-71
2021/12/04 04:29:29;;;;;;;64.45;21.25;;;;;;;4.56;100.00;99726.44;2610059;36;20125;-70
2021/12/04 04:32:07;;;;;;;62.50;21.25;;;;;;;4.44;100.00;99728.28;2609265;36;20133;-70
2021/12/04 04:34:51;;;;;;;77.97;23.15;;;;;;;4.37;100.00;99722.63;2610115;36;20129;-69
2021/12/04 04:37:33;;;;;;;65.07;21.50;;;;;;;4.43;100.00;99726.59;2608506;36;20034;-71
2021/12/04 04:40:27;;;;;;;86.40;23.80;;;;;;;4.41;100.00;99723.19;2610144;36;20035;-69
2021/12/04 05:00:17;;;;;;;88.10;28.00;;;;;;;4.37;100.00;99714.63;2610521;36;20037;-72
2021/12/04 05:11:05;;;;;;;143.65;30.77;;;;;;;4.33;100.00;99702.50;2610376;36;20042;-71
2021/12/04 05:13:34;;;;;;;107.88;26.52;;;;;;;4.37;100.00;99701.31;2609886;36;20678;-70
2021/12/04 05:16:15;;;;;;;125.40;31.90;;;;;;;4.30;100.00;99699.25;2609575;36;20063;-69
2021/12/04 05:18:57;;;;;;;108.18;27.08;;;;;;;4.36;100.00;99691.59;2610277;36;20980;-71
2021/12/04 05:21:26;;;;;;;131.15;30.65;;;;;;;4.35;100.00;99686.41;2606948;36;20034;-71
2021/12/04 05:23:58;;;;;;;158.07;32.38;;;;;;;4.35;100.00;99686.41;2607429;36;20133;-71
2021/12/04 05:29:09;;;;;;;137.57;31.85;;;;;;;4.33;100.00;99689.19;2607060;36;20030;-71
2021/12/04 05:31:37;;;;;;;133.48;30.65;;;;;;;4.33;100.00;99694.53;2609342;36;20229;-70
2021/12/04 05:34:05;;;;;;;166.15;35.17;;;;;;;4.35;100.00;99691.72;2608897;36;20133;-70
2021/12/04 05:36:34;;;;;;;129.52;31.63;;;;;;;4.39;100.00;99679.88;2608311;36;20185;-70
2021/12/04 05:39:08;;;;;;;121.80;30.50;;;;;;;4.37;100.00;99679.13;2607383;36;20239;-70
2021/12/04 05:41:37;;;;;;;153.35;31.02;;;;;;;4.50;100.00;99674.47;2607489;36;20104;-70
2021/12/04 05:44:08;;;;;;;130.50;29.83;;;;;;;4.55;100.00;99672.28;2606826;36;20046;-70
2021/12/04 05:46:40;;;;;;;125.70;29.98;;;;;;;4.59;100.00;99667.53;2608143;36;20038;-71
2021/12/04 05:49:13;;;;;;;102.45;28.95;;;;;;;4.43;100.00;99668.00;2607810;31;20038;-71
2021/12/04 05:52:08;;;;;;;141.95;30.17;;;;;;;4.45;100.00;99670.53;2606755;36;20432;-70
2021/12/04 05:57:31;;;;;;;111.97;29.65;;;;;;;4.47;100.00;99668.56;2606613;36;20046;-71
2021/12/04 06:00:00;;;;;;;158.23;32.80;;;;;;;4.47;100.00;99669.41;2606613;36;20037;-70
2021/12/04 06:02:28;;;;;;;143.38;29.77;;;;;;;4.51;100.00;99670.00;2605513;31;20042;-72
2021/12/04 06:04:59;;;;;;;104.47;27.40;;;;;;;4.48;100.00;99670.28;2607251;36;20139;-70
2021/12/04 06:07:35;;;;;;;112.75;30.17;;;;;;;4.50;100.00;99658.50;2605834;36;20154;-70
2021/12/04 06:10:07;;;;;;;140.63;31.15;;;;;;;4.60;100.00;99663.06;2606154;36;20070;-71
2021/12/04 06:12:36;;;;;;;112.10;29.13;;;;;;;4.59;100.00;99666.72;2606665;36;20118;-71
2021/12/04 06:15:12;;;;;;;199.82;34.83;;;;;;;4.52;100.00;99666.34;2606246;36;20154;-72
2021/12/04 06:17:43;;;;;;;121.70;28.90;;;;;;;4.54;100.00;99665.25;2606816;36;20034;-71
2021/12/04 06:22:56;;;;;;;127.03;30.10;;;;;;;4.49;100.00;99674.59;2610034;36;20034;-71
2021/12/04 06:25:34;;;;;;;182.55;32.45;;;;;;;4.48;100.00;99671.09;2610897;36;20030;-70
2021/12/04 06:28:03;;;;;;;134.10;29.50;;;;;;;4.44;100.00;99676.81;2610499;36;20034;-71
2021/12/04 06:30:35;;;;;;;108.45;28.58;;;;;;;4.50;100.00;99679.81;2610048;31;20579;-71
2021/12/04 06:33:31;;;;;;;183.35;33.45;;;;;;;4.48;100.00;99678.25;2608614;36;20061;-70
2021/12/04 06:36:10;;;;;;;145.02;31.45;;;;;;;4.41;100.00;99661.09;2607667;36;20042;-70
2021/12/04 06:38:38;;;;;;;184.18;34.88;;;;;;;4.36;100.00;99670.28;2607230;31;21786;-72
2021/12/04 06:47:53;;;;;;;122.03;28.67;;;;;;;4.52;100.00;99653.03;2604568;36;20035;-71
2021/12/04 06:50:45;;;;;;;172.57;34.05;;;;;;;4.41;100.00;99664.59;2606278;36;20030;-70
2021/12/04 09:10:09;;;;;;;123.88;33.10;;;;;;;4.70;100.00;99576.88;2278778;36;18391871;-70
2021/12/04 10:00:50;;;;;;;84.43;27.27;;;;;;;4.94;100.00;99550.94;2614450;36;20056;-70
2021/12/04 10:20:17;;;;;;;76.47;26.00;;;;;;;5.04;100.00;99534.00;2614809;36;20053;-71
2021/12/04 10:23:04;;;;;;;71.47;25.35;;;;;;;5.15;100.00;99538.38;2615743;31;20050;-72
2021/12/04 10:33:44;;;;;;;73.68;24.58;;;;;;;5.19;100.00;99514.97;2614573;36;20034;-70
2021/12/04 10:36:13;;;;;;;69.15;23.88;;;;;;;5.19;100.00;99510.47;2615079;36;20153;-73
2021/12/04 10:38:43;;;;;;;61.53;22.23;;;;;;;5.30;100.00;99516.69;2615036;36;20030;-70
2021/12/04 10:41:18;;;;;;;68.03;22.70;;;;;;;5.28;100.00;99519.50;2615380;36;20034;-71
2021/12/04 10:43:46;;;;;;;71.95;21.55;;;;;;;5.26;100.00;99514.28;2615206;36;20046;-71
2021/12/04 10:46:16;;;;;;;65.45;22.60;;;;;;;5.25;100.00;99504.59;2612544;36;20548;-71
2021/12/04 10:52:01;;;;;;;63.40;19.85;;;;;;;5.39;100.00;99494.56;2610720;36;19954;-70
2021/12/04 10:54:39;;;;;;;71.32;20.90;;;;;;;5.41;100.00;99490.75;2612272;31;20531;-68
2021/12/04 11:00:08;;;;;;;60.15;21.65;;;;;;;5.55;100.00;99476.19;2610720;36;20041;-68
2021/12/04 11:02:41;;;;;;;66.15;21.58;;;;;;;5.52;100.00;99468.44;2611586;36;20038;-69
2021/12/04 11:05:43;;;;;;;69.63;23.10;;;;;;;5.50;100.00;99477.56;2610822;36;20030;-72
2021/12/04 11:19:38;;;;;;;70.15;23.40;;;;;;;5.28;100.00;99441.28;2612398;36;20038;-73
2021/12/04 11:22:19;;;;;;;57.93;19.40;;;;;;;5.34;100.00;99433.56;2613185;36;20030;-73
2021/12/04 11:28:13;;;;;;;75.63;21.92;;;;;;;5.49;100.00;99426.03;2628899;36;20031;-72
2021/12/04 11:42:27;;;;;;;64.30;21.55;;;;;;;5.50;100.00;99416.19;2627799;36;20034;-72
2021/12/04 11:45:21;;;;;;;69.03;21.58;;;;;;;5.37;100.00;99413.78;2610697;36;20042;-73
2021/12/04 11:47:54;;;;;;;58.83;19.10;;;;;;;5.49;100.00;99411.81;2611163;36;20034;-70
2021/12/04 11:50:37;;;;;;;62.17;20.70;;;;;;;5.56;100.00;99413.78;2610162;36;20065;-69
2021/12/04 11:53:08;;;;;;;64.03;20.65;;;;;;;5.68;100.00;99413.66;2628234;36;20038;-76
2021/12/04 11:55:40;;;;;;;55.35;20.33;;;;;;;5.67;100.00;99398.63;2610293;36;20042;-75
2021/12/04 11:58:20;;;;;;;68.22;20.95;;;;;;;5.83;100.00;99401.59;2628950;36;20059;-75
2021/12/04 12:00:48;;;;;;;57.20;20.85;;;;;;;5.88;100.00;99402.00;2610506;36;20046;-75
2021/12/04 12:03:22;;;;;;;53.40;20.10;;;;;;;5.57;100.00;99393.31;2610410;36;20038;-75
2021/12/04 12:06:00;;;;;;;49.30;18.70;;;;;;;5.53;100.00;99390.06;2610656;36;20065;-69
2021/12/04 12:11:47;;;;;;;49.22;17.00;;;;;;;5.45;100.00;99392.59;2627851;36;20038;-78
2021/12/04 12:21:53;;;;;;;54.17;19.45;;;;;;;5.43;100.00;99381.19;2611183;36;21033;-75
2021/12/04 12:27:32;;;;;;;54.72;18.70;;;;;;;5.42;100.00;99383.03;2611877;36;20030;-75
2021/12/04 12:53:44;;;;;;;63.47;23.85;;;;;;;5.22;100.00;99357.31;2610488;36;20030;-75
2021/12/04 12:56:15;;;;;;;66.78;23.48;;;;;;;5.31;100.00;99355.66;2610482;36;20034;-75
2021/12/04 12:58:50;;;;;;;65.00;24.35;;;;;;;5.44;100.00;99348.22;2610375;36;20131;-75
2021/12/04 13:18:25;;;;;;;70.60;25.83;;;;;;;5.27;100.00;99333.75;2606262;36;20049;-75
2021/12/04 13:20:58;;;;;;;70.15;26.33;;;;;;;5.29;100.00;99333.63;2610660;36;20083;-75
2021/12/04 13:32:28;;;;;;;73.65;25.67;;;;;;;5.34;100.00;99316.19;2609550;36;20037;-75
2021/12/04 13:35:45;;;;;;;;;;;;;;;;;;;;;
2021/12/04 13:44:51;;;;;;;67.78;23.73;;;;;;;5.29;100.00;99317.59;2644083;36;20110;-75
2021/12/04 13:57:57;;;;;;;74.75;26.50;;;;;;;5.32;100.00;99333.34;2607432;39;20432;-74
2021/12/04 14:00:28;;;;;;;81.20;28.00;;;;;;;5.25;100.00;99328.53;2609427;36;20045;-74
2021/12/04 14:02:56;;;;;;;67.55;27.63;;;;;;;5.29;100.00;99328.28;2609021;31;20557;-75
2021/12/04 14:05:27;;;;;;;76.47;26.65;;;;;;;5.25;100.00;99333.88;2610314;36;20161;-75
2021/12/04 14:11:16;;;;;;;75.72;26.83;;;;;;;5.32;100.00;99333.34;2627893;36;20559;-74
2021/12/04 14:13:44;;;;;;;65.38;23.05;;;;;;;5.26;100.00;99321.38;2610363;36;20069;-75
2021/12/04 14:16:15;;;;;;;66.90;27.50;;;;;;;5.19;100.00;99331.75;2606337;36;20169;-76
2021/12/04 14:18:44;;;;;;;75.45;27.80;;;;;;;5.13;100.00;99332.31;2610678;36;20152;-76
2021/12/04 14:21:14;;;;;;;75.30;27.35;;;;;;;5.19;100.00;99334.44;2609798;36;20034;-76
2021/12/04 14:23:43;;;;;;;70.43;25.15;;;;;;;5.29;100.00;99333.63;2612346;36;20057;-75
2021/12/04 14:26:11;;;;;;;67.32;26.08;;;;;;;5.37;100.00;99333.75;2610632;36;20073;-74
2021/12/04 14:28:43;;;;;;;71.15;24.55;;;;;;;5.36;100.00;99330.25;2610339;36;20130;-74
2021/12/04 14:31:15;;;;;;;71.43;25.95;;;;;;;5.40;100.00;99320.13;2610427;36;20042;-75
2021/12/04 14:33:51;;;;;;;72.60;28.20;;;;;;;5.34;100.00;99326.03;2628376;36;20088;-74
2021/12/04 14:36:20;;;;;;;78.93;28.83;;;;;;;5.29;100.00;99326.44;2610925;36;20042;-74
2021/12/04 14:38:51;;;;;;;71.25;26.50;;;;;;;5.43;100.00;99325.16;2611650;36;20038;-74
2021/12/04 14:41:23;;;;;;;76.40;27.25;;;;;;;5.38;100.00;99324.75;2610564;47;20162;-75
2021/12/04 14:43:53;;;;;;;79.43;27.20;;;;;;;5.46;100.00;99324.88;2630231;31;20122;-75
2021/12/04 14:46:25;;;;;;;75.40;28.13;;;;;;;5.38;100.00;99335.44;2613592;36;20031;-72
2021/12/04 14:48:57;;;;;;;71.80;26.85;;;;;;;5.35;100.00;99330.38;2631660;36;20034;-72
2021/12/04 14:51:32;;;;;;;72.70;26.90;;;;;;;5.35;100.00;99331.22;2610890;36;20035;-73
2021/12/04 14:54:16;;;;;;;69.13;26.27;;;;;;;5.36;100.00;99329.38;2629653;36;20062;-71
2021/12/04 14:56:47;;;;;;;60.53;25.02;;;;;;;5.51;100.00;99337.81;2614591;36;20413;-73
2021/12/04 14:59:20;;;;;;;61.70;24.48;;;;;;;5.50;100.00;99342.31;2613055;36;20038;-72
2021/12/04 15:01:49;;;;;;;68.65;25.27;;;;;;;5.52;100.00;99343.03;2613723;36;20409;-72
2021/12/04 15:04:20;;;;;;;65.03;23.25;;;;;;;5.50;100.00;99341.47;2613003;36;20038;-72
2021/12/04 15:06:53;;;;;;;66.97;24.35;;;;;;;5.57;100.00;99346.09;2613785;36;20038;-71
2021/12/04 15:09:24;;;;;;;59.70;24.27;;;;;;;5.57;100.00;99348.75;2606683;36;20042;-72
2021/12/04 15:11:58;;;;;;;67.18;25.20;;;;;;;5.66;100.00;99352.41;2613776;36;20031;-74
2021/12/04 15:17:19;;;;;;;66.43;26.67;;;;;;;5.57;100.00;99359.44;2611871;54;20044;-72
2021/12/04 15:20:06;;;;;;;52.75;23.10;;;;;;;5.61;100.00;99366.19;2611367;36;20072;-72
2021/12/04 15:22:54;;;;;;;56.80;22.70;;;;;;;5.54;100.00;99364.22;2610078;36;20042;-73
2021/12/04 15:25:40;;;;;;;53.38;22.13;;;;;;;5.54;100.00;99369.56;2610088;31;20038;-73
2021/12/04 15:28:41;;;;;;;55.75;22.70;;;;;;;5.55;100.00;99374.75;2611247;36;20040;-72
2021/12/04 15:31:15;;;;;;;47.83;19.15;;;;;;;5.46;100.00;99378.25;2610808;36;20030;-73
2021/12/04 15:34:03;;;;;;;53.00;20.83;;;;;;;5.41;100.00;99383.19;2611155;54;20069;-72
2021/12/04 16:11:25;;;;;;;24.27;12.10;;;;;;;5.08;100.00;99403.91;2627986;36;20868;-71
2021/12/04 16:13:56;;;;;;;17.35;8.25;;;;;;;5.14;100.00;99406.03;2609976;36;20038;-72
2021/12/04 16:16:29;;;;;;;18.70;7.78;;;;;;;5.14;100.00;99414.03;2648184;36;20019;-72
2021/12/04 16:24:22;;;;;;;22.17;9.60;;;;;;;5.15;100.00;99413.03;2607372;36;20045;-71
2021/12/04 16:26:57;;;;;;;19.95;8.73;;;;;;;5.25;100.00;99413.88;2611470;36;20573;-72
2021/12/04 16:29:29;;;;;;;17.75;7.80;;;;;;;5.31;100.00;99422.34;2611312;36;20049;-72
2021/12/04 16:32:33;;;;;;;19.30;8.30;;;;;;;5.22;100.00;99430.19;2627714;36;20120;-71
2021/12/04 16:35:18;;;;;;;23.45;9.80;;;;;;;5.13;100.00;99424.84;2627512;36;20078;-70
2021/12/04 16:37:49;;;;;;;20.75;8.85;;;;;;;5.14;100.00;99435.38;2611036;36;20034;-70
2021/12/04 16:40:23;;;;;;;25.63;11.38;;;;;;;5.13;100.00;99436.34;2609326;36;20070;-71
2021/12/04 16:43:01;;;;;;;26.23;11.07;;;;;;;5.08;100.00;99438.59;2609897;31;20034;-72
2021/12/04 16:45:36;;;;;;;27.20;10.77;;;;;;;5.05;100.00;99445.03;2610539;36;20058;-71
2021/12/04 16:48:07;;;;;;;28.20;11.57;;;;;;;5.09;100.00;99458.91;2624494;36;21472;-71
2021/12/04 16:56:25;;;;;;;32.03;13.73;;;;;;;5.01;100.00;99458.78;2608889;36;20722;-71
2021/12/04 16:58:59;;;;;;;37.65;14.35;;;;;;;5.04;100.00;99458.50;2608334;31;20031;-70
2021/12/04 17:01:28;;;;;;;38.58;13.43;;;;;;;5.03;100.00;99467.47;2609445;36;20138;-72
2021/12/04 17:03:56;;;;;;;31.55;14.77;;;;;;;5.11;100.00;99470.31;2609145;36;20038;-70
2021/12/04 17:06:25;;;;;;;48.87;23.43;;;;;;;5.17;100.00;99480.44;2608897;36;20163;-74
2021/12/04 17:11:34;;;;;;;36.92;15.77;;;;;;;5.10;100.00;99484.63;2626288;36;20034;-72
2021/12/04 17:16:58;;;;;;;48.28;21.77;;;;;;;5.16;100.00;99478.75;2607961;36;20031;-72
2021/12/04 17:19:26;;;;;;;45.08;17.15;;;;;;;5.09;100.00;99475.78;2607017;36;20041;-73
2021/12/04 17:22:03;;;;;;;40.60;16.13;;;;;;;5.06;100.00;99488.53;2608159;36;20394;-71
2021/12/04 17:24:32;;;;;;;43.22;16.83;;;;;;;5.05;100.00;99478.81;2628000;36;20461;-73
2021/12/04 17:27:02;;;;;;;40.17;15.40;;;;;;;5.04;100.00;99480.66;2625129;36;20034;-71
2021/12/04 17:29:33;;;;;;;45.95;16.10;;;;;;;5.01;100.00;99485.44;2608881;36;20034;-72
2021/12/04 17:32:03;;;;;;;43.53;15.85;;;;;;;5.06;100.00;99483.19;2608119;31;20054;-73
2021/12/04 17:34:32;;;;;;;39.03;15.63;;;;;;;5.06;100.00;99491.19;2609462;36;20588;-73
2021/12/04 17:37:15;;;;;;;40.25;16.38;;;;;;;5.02;100.00;99493.31;2607601;36;20043;-71
2021/12/04 17:39:43;;;;;;;35.10;14.32;;;;;;;5.08;100.00;99495.41;2609475;36;20031;-72
2021/12/04 17:42:12;;;;;;;75.57;42.65;;;;;;;5.05;100.00;99503.69;2608366;31;20665;-71
2021/12/04 17:44:43;;;;;;;43.33;19.60;;;;;;;4.96;100.00;99503.63;2607923;36;20049;-71
2021/12/04 17:47:11;;;;;;;41.13;15.82;;;;;;;4.93;100.00;99509.25;2609698;36;20134;-74
2021/12/04 17:49:40;;;;;;;32.58;14.35;;;;;;;4.90;100.00;99511.22;2606597;36;20038;-72
2021/12/04 17:52:09;;;;;;;44.15;20.75;;;;;;;5.00;100.00;99505.91;2623181;31;20162;-71
2021/12/04 17:54:46;;;;;;;37.58;17.20;;;;;;;4.90;100.00;99508.53;2609803;36;20038;-72
2021/12/04 17:57:17;;;;;;;48.80;20.13;;;;;;;4.96;100.00;99503.63;2611312;36;20429;-71
2021/12/04 17:59:49;;;;;;;52.53;25.35;;;;;;;5.02;100.00;99509.28;2611751;36;20556;-71
2021/12/04 18:02:21;;;;;;;42.30;16.52;;;;;;;4.95;100.00;99513.47;2604892;36;20167;-72
2021/12/04 18:04:56;;;;;;;34.58;14.38;;;;;;;4.97;100.00;99516.00;2609249;36;20110;-71
2021/12/04 18:07:29;;;;;;;40.65;19.48;;;;;;;4.87;100.00;99511.47;2608022;36;20046;-71
2021/12/04 18:10:03;;;;;;;36.40;14.57;;;;;;;4.78;100.00;99506.91;2610291;31;20050;-72
2021/12/04 18:12:47;;;;;;;29.98;13.25;;;;;;;4.71;100.00;99516.41;2609121;36;20038;-72
2021/12/04 18:18:43;;;;;;;32.53;13.00;;;;;;;4.61;100.00;99511.06;2611054;36;20540;-72
2021/12/04 18:21:15;;;;;;;29.92;11.82;;;;;;;4.59;100.00;99517.47;2610109;36;20057;-73
2021/12/04 18:23:44;;;;;;;33.88;14.90;;;;;;;4.60;100.00;99520.00;2610308;31;20686;-71
2021/12/04 18:26:15;;;;;;;32.40;12.27;;;;;;;4.53;100.00;99519.72;2610295;36;20030;-73
2021/12/04 18:28:44;;;;;;;26.38;12.15;;;;;;;4.46;100.00;99518.53;2609568;36;20059;-72
2021/12/04 18:31:18;;;;;;;32.40;15.90;;;;;;;4.44;100.00;99517.81;2609723;36;20159;-71
2021/12/04 18:33:51;;;;;;;34.58;13.57;;;;;;;4.51;100.00;99518.97;2610427;36;20058;-73
2021/12/04 18:36:22;;;;;;;26.55;12.23;;;;;;;4.52;100.00;99527.81;2608808;36;20720;-73
2021/12/04 18:38:56;;;;;;;26.70;11.65;;;;;;;4.41;100.00;99526.06;2607181;36;20085;-73
2021/12/04 18:41:26;;;;;;;32.10;12.98;;;;;;;4.49;100.00;99528.94;2623838;36;20084;-72
2021/12/04 18:47:05;;;;;;;35.78;19.95;;;;;;;4.46;100.00;99533.66;2628492;36;20521;-73
2021/12/04 18:49:33;;;;;;;30.88;16.88;;;;;;;4.33;100.00;99539.19;2610351;36;20550;-72
2021/12/04 18:52:02;;;;;;;24.13;11.45;;;;;;;4.33;100.00;99539.19;2609114;36;20069;-73
2021/12/04 18:54:31;;;;;;;29.02;11.43;;;;;;;4.35;100.00;99539.91;2609140;31;20042;-73
2021/12/04 18:57:06;;;;;;;21.52;9.32;;;;;;;4.35;100.00;99526.56;2610134;36;20134;-71
2021/12/04 18:59:35;;;;;;;21.50;11.50;;;;;;;4.39;100.00;99533.34;2610677;36;20038;-73
2021/12/04 19:02:08;;;;;;;27.95;10.85;;;;;;;4.45;100.00;99527.50;2610467;31;20031;-72
2021/12/04 19:04:38;;;;;;;21.08;9.40;;;;;;;4.43;100.00;99531.25;2610220;36;20038;-72
2021/12/04 19:07:07;;;;;;;17.02;9.45;;;;;;;4.47;100.00;99530.03;2610517;36;20143;-72
2021/12/04 19:15:01;;;;;;;17.75;8.73;;;;;;;4.39;100.00;99533.34;2611843;54;20038;-71
2021/12/04 19:17:33;;;;;;;19.30;10.48;;;;;;;4.33;100.00;99532.03;2608835;36;20034;-71
2021/12/04 19:20:37;;;;;;;23.95;8.18;;;;;;;4.29;100.00;99538.59;2610784;36;20031;-72
2021/12/04 19:29:02;;;;;;;18.90;8.65;;;;;;;4.17;100.00;99551.09;2628209;36;20042;-71
2021/12/04 19:31:37;;;;;;;17.63;7.88;;;;;;;4.13;100.00;99544.34;2629880;36;20541;-72
2021/12/04 19:34:23;;;;;;;16.83;7.68;;;;;;;4.12;100.00;99542.66;2626670;36;20070;-72
2021/12/04 19:50:41;;;;;;;18.85;7.57;;;;;;;3.92;100.00;99549.63;2629238;36;20057;-72
2021/12/04 19:53:39;;;;;;;25.52;8.40;;;;;;;3.93;100.00;99555.78;2628474;36;20035;-72
2021/12/04 19:56:17;;;;;;;19.77;7.25;;;;;;;4.12;100.00;99549.78;2608958;36;20063;-72
2021/12/04 19:58:52;;;;;;;24.40;8.45;;;;;;;4.14;100.00;99548.69;2626664;36;20031;-72
2021/12/04 20:01:29;;;;;;;17.63;8.43;;;;;;;4.13;100.00;99555.00;2602646;36;22103;-72
2021/12/04 20:04:09;;;;;;;20.65;8.35;;;;;;;4.17;100.00;99559.09;2609485;36;20041;-71
2021/12/04 20:06:48;;;;;;;;;;;;;;;4.19;100.00;99558.97;2610029;36;20576;-72
2021/12/04 20:14:42;;;;;;;20.30;8.68;;;;;;;4.11;100.00;99572.94;2608520;36;20526;-72